Time;durP1;ratioP1;P1;durP2;ratioP2;P2;SDS_P1;SDS_P2;PMS_P1;PMS_P2;Temp;Humidity;BMP_temperature;BMP_pressure;BME280_temperature;BME280_humidity;BME280_pressure;Samples;Min_cycle;Max_cycle;Signal;HPM_P1;HPM_P2
2022/10/18 06:59:10;;;;;;;6.90;4.25;;;11.90;99.90;;;;;;5148531;27;20345;-41
2022/10/18 07:01:36;;;;;;;10.05;5.80;;;11.80;99.90;;;;;;5106433;28;20020;-40
2022/10/18 07:04:02;;;;;;;13.60;5.38;;;11.90;99.90;;;;;;5110682;28;20498;-48
2022/10/18 07:06:27;;;;;;;6.53;5.00;;;12.00;99.90;;;;;;5102093;28;20024;-47
2022/10/18 07:08:53;;;;;;;11.20;4.93;;;12.10;99.90;;;;;;5109971;28;20035;-42
2022/10/18 07:11:23;;;;;;;10.82;4.30;;;12.10;99.90;;;;;;5109151;28;20077;-41
2022/10/18 07:13:49;;;;;;;8.90;4.47;;;12.20;99.90;;;;;;5106719;28;20023;-43
2022/10/18 07:16:17;;;;;;;5.57;4.30;;;12.30;99.90;;;;;;5107944;28;20106;-41
2022/10/18 07:18:48;;;;;;;14.18;4.65;;;12.40;99.90;;;;;;5109524;28;20085;-43
2022/10/18 07:21:15;;;;;;;10.75;3.90;;;12.40;99.90;;;;;;5109423;28;20080;-42
2022/10/18 07:23:43;;;;;;;5.30;3.47;;;12.40;99.90;;;;;;5108709;28;20024;-41
2022/10/18 07:26:27;;;;;;;6.68;3.80;;;12.50;99.90;;;;;;5106463;28;20028;-43
2022/10/18 07:28:57;;;;;;;8.68;3.67;;;12.60;99.90;;;;;;5099152;28;20023;-43
2022/10/18 07:31:23;;;;;;;7.38;4.10;;;12.60;99.90;;;;;;5103218;28;20066;-56
2022/10/18 07:33:49;;;;;;;8.05;3.50;;;12.70;99.90;;;;;;5096723;28;20073;-41
2022/10/18 07:36:15;;;;;;;11.73;3.72;;;12.70;99.90;;;;;;5086478;28;20468;-44
2022/10/18 07:38:40;;;;;;;9.23;4.13;;;12.70;99.90;;;;;;5089221;28;20016;-42
2022/10/18 07:41:07;;;;;;;7.90;4.43;;;12.70;99.90;;;;;;5089132;28;20388;-42
2022/10/18 07:43:34;;;;;;;8.48;3.45;;;12.80;99.90;;;;;;5069425;28;20017;-43
2022/10/18 07:46:02;;;;;;;5.93;3.28;;;12.80;99.90;;;;;;5070525;28;20648;-42
2022/10/18 07:48:27;;;;;;;;;;;12.90;99.90;;;;;;5089799;28;20020;-42
2022/10/18 07:50:53;;;;;;;7.45;3.38;;;12.90;99.90;;;;;;5089733;28;20366;-42
2022/10/18 07:53:19;;;;;;;6.35;3.65;;;13.00;99.90;;;;;;5089377;28;20433;-42
2022/10/18 07:55:45;;;;;;;6.03;3.55;;;13.10;99.90;;;;;;5089691;28;20499;-42
2022/10/18 07:58:13;;;;;;;7.45;4.07;;;13.20;99.90;;;;;;5090098;28;20033;-41
2022/10/18 08:00:39;;;;;;;6.43;4.18;;;13.20;99.90;;;;;;5089354;28;20036;-43
2022/10/18 08:03:05;;;;;;;7.03;3.65;;;13.20;99.90;;;;;;5088707;28;20452;-39
2022/10/18 08:05:31;;;;;;;10.40;4.50;;;13.30;99.90;;;;;;5089176;28;20020;-42
2022/10/18 08:07:57;;;;;;;8.48;3.85;;;13.40;99.90;;;;;;5089180;28;20054;-51
2022/10/18 08:10:23;;;;;;;8.70;3.78;;;13.40;99.90;;;;;;5076415;28;20082;-43
2022/10/18 08:12:49;;;;;;;9.48;4.68;;;13.50;99.90;;;;;;5075571;28;20040;-42
2022/10/18 08:15:15;;;;;;;13.25;5.15;;;13.50;99.90;;;;;;5075513;28;20036;-46
2022/10/18 08:17:42;;;;;;;12.05;4.30;;;13.60;99.90;;;;;;5075467;28;20389;-41
2022/10/18 08:20:08;;;;;;;16.48;4.95;;;13.70;99.90;;;;;;5075119;28;20032;-45
2022/10/18 08:22:34;;;;;;;10.02;5.25;;;13.80;99.90;;;;;;5075288;28;20484;-41
2022/10/18 08:25:00;;;;;;;12.23;5.18;;;13.80;99.90;;;;;;5075404;28;20264;-39
2022/10/18 08:27:26;;;;;;;8.77;4.10;;;13.90;99.90;;;;;;5075368;28;20040;-45
2022/10/18 08:29:52;;;;;;;6.22;4.53;;;14.10;99.90;;;;;;5075241;28;20029;-41
2022/10/18 08:32:20;;;;;;;8.98;4.80;;;14.20;99.90;;;;;;5075333;28;20033;-41
2022/10/18 08:34:46;;;;;;;9.07;4.18;;;14.30;99.90;;;;;;5075257;28;20071;-40
2022/10/18 08:37:12;;;;;;;10.75;5.25;;;14.40;99.90;;;;;;5074479;28;20048;-39
2022/10/18 08:39:37;;;;;;;10.50;5.18;;;14.50;99.90;;;;;;5075050;28;20029;-35
2022/10/18 08:42:34;;;;;;;10.10;4.90;;;14.60;99.90;;;;;;5074932;28;20365;-33
2022/10/18 08:44:59;;;;;;;7.70;4.45;;;14.60;99.90;;;;;;5074940;28;20025;-35
2022/10/18 08:47:37;;;;;;;9.25;5.05;;;14.70;99.90;;;;;;5074925;28;20033;-32
2022/10/18 08:50:06;;;;;;;11.20;4.80;;;14.80;99.90;;;;;;5074904;28;20554;-34
2022/10/18 08:52:46;;;;;;;16.65;5.10;;;14.90;99.90;;;;;;5074740;28;20040;-33
2022/10/18 08:55:29;;;;;;;16.67;5.68;;;15.10;99.90;;;;;;5074244;28;20089;-35
2022/10/18 08:57:58;;;;;;;7.45;4.43;;;15.20;99.90;;;;;;5074603;28;20044;-33
2022/10/18 09:00:30;;;;;;;10.35;4.40;;;15.30;99.90;;;;;;5074582;28;20028;-36
2022/10/18 09:03:24;;;;;;;8.55;3.80;;;15.40;99.90;;;;;;5070755;28;20024;-37
2022/10/18 09:06:01;;;;;;;10.20;4.07;;;15.50;99.90;;;;;;5069780;28;20036;-37
2022/10/18 09:08:50;;;;;;;11.27;3.90;;;15.50;99.90;;;;;;5072106;28;20025;-37
2022/10/18 09:11:40;;;;;;;5.90;3.38;;;15.60;99.90;;;;;;5071530;28;20032;-34
2022/10/18 09:14:30;;;;;;;10.02;2.60;;;15.70;99.90;;;;;;5072651;28;20032;-34
2022/10/18 09:17:14;;;;;;;17.08;2.80;;;15.80;99.90;;;;;;5071827;28;20025;-39
2022/10/18 09:19:58;;;;;;;5.28;1.90;;;15.80;99.90;;;;;;5063028;28;20434;-32
2022/10/18 09:22:38;;;;;;;6.38;1.80;;;15.90;99.90;;;;;;5065611;28;20032;-50
2022/10/18 09:25:13;;;;;;;3.13;1.92;;;15.90;99.90;;;;;;5071950;28;20024;-32
2022/10/18 09:28:17;;;;;;;12.27;2.28;;;15.90;99.90;;;;;;5073264;28;20038;-38
2022/10/18 09:30:59;;;;;;;7.30;2.08;;;16.00;99.90;;;;;;5067321;28;20135;-35
2022/10/18 09:33:44;;;;;;;18.13;4.15;;;16.00;99.90;;;;;;5066821;28;20047;-32
2022/10/18 09:36:17;;;;;;;12.85;2.72;;;15.90;99.90;;;;;;5071441;28;20074;-37
2022/10/18 09:38:47;;;;;;;5.97;2.00;;;15.90;99.90;;;;;;5068449;28;20029;-38
2022/10/18 09:41:23;;;;;;;5.60;2.53;;;16.00;99.90;;;;;;5066725;28;20037;-34
2022/10/18 09:43:57;;;;;;;8.85;2.30;;;16.10;99.90;;;;;;5072810;28;20107;-38
2022/10/18 09:46:29;;;;;;;5.47;1.52;;;16.20;99.90;;;;;;5069295;28;20052;-37
2022/10/18 09:49:01;;;;;;;8.15;2.00;;;16.30;99.90;;;;;;5068985;28;20033;-35
2022/10/18 09:51:34;;;;;;;13.57;1.85;;;16.40;99.90;;;;;;5071514;28;20548;-36
2022/10/18 09:54:16;;;;;;;10.27;1.58;;;16.40;99.90;;;;;;5071641;28;20468;-37
2022/10/18 09:57:02;;;;;;;4.47;1.60;;;16.40;99.90;;;;;;5067547;28;20625;-43
2022/10/18 09:59:35;;;;;;;3.80;1.42;;;16.40;99.90;;;;;;5071751;28;20516;-46
2022/10/18 10:02:01;;;;;;;4.47;1.60;;;16.50;99.90;;;;;;5072748;28;20024;-36
2022/10/18 10:04:27;;;;;;;3.95;1.27;;;16.60;99.90;;;;;;5070415;28;20593;-35
2022/10/18 10:06:55;;;;;;;5.93;1.60;;;16.70;99.90;;;;;;5073166;28;20028;-34
2022/10/18 10:09:45;;;;;;;2.38;0.73;;;16.80;99.90;;;;;;5069867;28;20089;-38
2022/10/18 10:12:43;;;;;;;3.90;1.02;;;16.80;99.90;;;;;;5073016;28;20123;-38
2022/10/18 10:15:20;;;;;;;8.20;0.90;;;16.80;99.90;;;;;;5035102;28;20481;-35
2022/10/18 10:18:00;;;;;;;5.15;0.82;;;16.80;99.90;;;;;;5072732;28;20031;-36
2022/10/18 10:20:40;;;;;;;4.75;1.13;;;16.90;99.90;;;;;;5072208;28;20032;-35
2022/10/18 10:23:28;;;;;;;9.40;1.30;;;16.90;99.90;;;;;;5070891;28;20021;-60
2022/10/18 10:26:00;;;;;;;4.75;0.93;;;16.90;99.90;;;;;;5066568;28;20477;-36
2022/10/18 10:28:30;;;;;;;7.80;1.05;;;16.90;99.90;;;;;;5069795;28;20473;-37
2022/10/18 10:31:20;;;;;;;8.23;0.85;;;17.00;99.90;;;;;;5072010;28;20027;-37
2022/10/18 10:33:46;;;;;;;5.18;1.30;;;17.00;99.90;;;;;;5072524;28;20101;-31
2022/10/18 10:36:20;;;;;;;5.22;0.73;;;17.00;99.90;;;;;;5072104;28;20024;-36
2022/10/18 10:39:00;;;;;;;8.88;1.23;;;17.00;99.90;;;;;;5072705;28;20029;-34
2022/10/18 10:41:45;;;;;;;3.90;0.63;;;17.10;99.90;;;;;;5072859;28;20016;-37
2022/10/18 10:44:17;;;;;;;6.57;0.93;;;17.20;99.90;;;;;;5072671;28;20025;-38
2022/10/18 10:46:42;;;;;;;9.02;1.02;;;17.30;99.90;;;;;;5072622;28;20055;-34
2022/10/18 10:49:20;;;;;;;3.90;1.35;;;17.30;99.90;;;;;;5071569;28;20060;-34
2022/10/18 10:51:53;;;;;;;6.60;1.77;;;17.30;99.90;;;;;;5073009;28;20063;-37
2022/10/18 10:54:23;;;;;;;6.90;1.35;;;17.30;99.90;;;;;;5079752;28;20031;-34
2022/10/18 10:57:10;;;;;;;8.32;2.08;;;17.50;99.90;;;;;;5069488;28;20086;-37
2022/10/18 10:59:51;;;;;;;3.47;1.15;;;17.60;99.90;;;;;;5058390;28;20052;-36
2022/10/18 11:02:33;;;;;;;10.52;1.25;;;17.70;99.90;;;;;;5063015;28;20021;-36
2022/10/18 11:05:21;;;;;;;9.65;1.33;;;17.60;99.90;;;;;;5065973;28;20020;-38
2022/10/18 11:07:50;;;;;;;4.05;0.90;;;17.60;99.90;;;;;;5060654;28;20487;-37
2022/10/18 11:10:20;;;;;;;9.75;0.98;;;17.60;99.90;;;;;;5068592;28;20032;-37
2022/10/18 11:12:55;;;;;;;2.83;0.85;;;17.60;99.90;;;;;;5065179;28;20604;-33
2022/10/18 11:15:45;;;;;;;5.03;1.20;;;17.60;99.90;;;;;;5062499;28;20025;-38
2022/10/18 11:21:35;;;;;;;2.53;0.70;;;17.80;99.90;;;;;;5065403;28;20031;-41
2022/10/18 11:24:02;;;;;;;4.63;0.65;;;18.00;99.90;;;;;;5069635;28;20024;-35
2022/10/18 11:26:34;;;;;;;4.65;0.65;;;18.10;99.90;;;;;;5066088;28;20076;-35
2022/10/18 11:29:26;;;;;;;5.47;0.70;;;18.20;99.90;;;;;;5063642;28;20028;-47
2022/10/18 11:32:20;;;;;;;11.65;1.15;;;18.30;99.90;;;;;;5066283;28;20059;-35
2022/10/18 11:35:00;;;;;;;7.00;1.05;;;18.30;99.90;;;;;;5063172;28;20037;-38
2022/10/18 11:37:47;;;;;;;6.45;1.25;;;18.20;99.90;;;;;;5068521;28;20024;-33
2022/10/18 11:40:36;;;;;;;5.13;0.80;;;18.10;99.90;;;;;;5066584;28;20592;-35
2022/10/18 11:43:08;;;;;;;5.15;1.10;;;18.10;99.90;;;;;;5067182;28;20095;-31
2022/10/18 11:45:51;;;;;;;4.80;1.95;;;18.20;99.90;;;;;;5068773;28;20027;-31
2022/10/18 11:48:25;;;;;;;0.80;0.47;;;18.30;99.90;;;;;;5076202;28;20051;-43
2022/10/18 11:51:27;;;;;;;12.35;1.75;;;18.30;99.90;;;;;;5075801;28;20495;-40
2022/10/18 11:54:27;;;;;;;8.27;0.88;;;18.10;99.90;;;;;;5068781;28;20033;-39
2022/10/18 11:57:15;;;;;;;7.88;1.33;;;18.10;99.90;;;;;;5072548;28;20492;-39
2022/10/18 11:59:49;;;;;;;12.35;1.92;;;18.30;99.90;;;;;;5070342;28;20046;-40
2022/10/18 12:02:24;;;;;;;6.15;0.90;;;18.30;99.90;;;;;;5070699;28;20476;-40
2022/10/18 12:04:59;;;;;;;4.93;1.35;;;18.10;99.90;;;;;;5072792;28;20029;-42
2022/10/18 12:07:28;;;;;;;8.10;1.08;;;18.20;99.90;;;;;;5073838;28;20111;-41
2022/10/18 12:09:54;;;;;;;7.85;0.80;;;18.30;99.90;;;;;;5073666;28;20058;-40
2022/10/18 12:12:31;;;;;;;6.15;0.90;;;18.40;99.90;;;;;;5075671;28;20032;-40
2022/10/18 12:15:04;;;;;;;8.97;1.10;;;18.50;99.90;;;;;;5075040;28;20477;-40
2022/10/18 12:17:29;;;;;;;4.88;0.70;;;18.50;99.90;;;;;;5074589;28;20485;-39
2022/10/18 12:19:58;;;;;;;4.95;0.80;;;18.30;99.90;;;;;;5074055;28;20122;-38
2022/10/18 12:22:39;;;;;;;2.97;0.93;;;18.40;99.90;;;;;;5074362;28;20450;-40
2022/10/18 12:25:13;;;;;;;3.60;0.70;;;18.40;99.90;;;;;;5066462;28;20024;-40
2022/10/18 12:27:56;;;;;;;5.90;1.05;;;18.40;99.90;;;;;;5074878;28;20021;-41
2022/10/18 12:30:25;;;;;;;5.90;0.88;;;18.60;99.90;;;;;;5075288;28;20024;-40
2022/10/18 12:33:03;;;;;;;2.67;0.82;;;18.50;99.90;;;;;;5072573;28;20458;-44
2022/10/18 12:35:32;;;;;;;;;;;18.50;99.90;;;;;;5071284;28;20020;-39
2022/10/18 12:38:16;;;;;;;1.95;0.80;;;18.50;99.90;;;;;;5075296;28;20457;-41
2022/10/18 12:40:48;;;;;;;6.93;0.75;;;18.50;99.90;;;;;;5073921;28;20503;-43
2022/10/18 12:43:25;;;;;;;2.20;0.43;;;18.40;99.90;;;;;;5074205;28;20032;-32
2022/10/18 12:45:57;;;;;;;4.90;0.35;;;18.30;99.90;;;;;;5072223;28;20376;-38
2022/10/18 12:48:29;;;;;;;8.05;0.57;;;18.30;99.90;;;;;;5074026;28;20039;-31
2022/10/18 12:51:18;;;;;;;2.40;0.80;;;18.20;99.90;;;;;;5074984;28;20028;-35
2022/10/18 12:54:07;;;;;;;3.13;0.80;;;18.30;99.90;;;;;;5074141;28;20081;-32
2022/10/18 12:56:36;;;;;;;3.42;1.05;;;18.50;99.90;;;;;;5072941;28;20072;-32
2022/10/18 12:59:14;;;;;;;3.72;0.50;;;18.60;99.90;;;;;;5074329;28;20045;-34
2022/10/18 13:01:49;;;;;;;;;;;18.90;99.90;;;;;;5075038;28;20020;-31
2022/10/18 13:04:26;;;;;;;3.58;0.47;;;19.00;99.90;;;;;;5074561;28;19934;-31
2022/10/18 13:06:58;;;;;;;8.20;1.25;;;19.10;99.90;;;;;;5074727;28;20380;-32
2022/10/18 13:09:34;;;;;;;3.00;0.65;;;19.20;99.90;;;;;;5073869;28;20465;-31
2022/10/18 13:12:09;;;;;;;5.68;0.70;;;19.10;99.90;;;;;;5074400;28;20504;-34
2022/10/18 13:14:43;;;;;;;3.08;0.63;;;19.10;99.90;;;;;;5072972;28;20106;-33
2022/10/18 13:17:50;;;;;;;4.72;0.85;;;19.10;99.90;;;;;;5074242;28;20024;-33
2022/10/18 13:20:30;;;;;;;5.38;0.55;;;19.10;99.90;;;;;;5074226;28;20508;-33
2022/10/18 13:23:07;;;;;;;2.92;0.55;;;18.80;99.90;;;;;;5072750;28;20124;-33
2022/10/18 13:25:54;;;;;;;8.05;0.80;;;18.60;99.90;;;;;;5074449;28;20477;-31
2022/10/18 13:28:45;;;;;;;20.57;0.93;;;18.60;99.90;;;;;;5054136;28;20032;-34
2022/10/18 13:31:49;;;;;;;2.70;0.70;;;18.50;99.90;;;;;;5054014;28;20548;-34
2022/10/18 13:34:26;;;;;;;1.95;0.40;;;18.50;99.90;;;;;;5064829;28;20029;-34
2022/10/18 13:37:05;;;;;;;2.92;0.73;;;18.70;99.90;;;;;;5074114;28;20042;-30
2022/10/18 13:39:32;;;;;;;3.03;0.68;;;18.80;99.90;;;;;;5073776;28;20024;-59
2022/10/18 13:41:57;;;;;;;2.92;0.98;;;18.90;99.90;;;;;;5073178;28;20020;-33
2022/10/18 13:44:36;;;;;;;1.42;0.45;;;18.80;99.90;;;;;;5072792;28;20051;-32
2022/10/18 13:47:01;;;;;;;1.80;1.13;;;18.80;99.90;;;;;;5072539;28;20064;-36
2022/10/18 13:49:42;;;;;;;2.30;0.82;;;18.70;99.90;;;;;;5072680;28;20052;-34
2022/10/18 13:52:38;;;;;;;4.97;1.48;;;18.80;99.90;;;;;;5068475;28;20024;-34
2022/10/18 13:55:46;;;;;;;6.18;0.90;;;18.80;99.90;;;;;;5071143;28;20063;-30
2022/10/18 13:58:42;;;;;;;4.65;0.70;;;18.70;99.90;;;;;;5071128;28;20040;-35
2022/10/18 14:01:35;;;;;;;6.20;0.50;;;18.60;99.90;;;;;;5071698;28;20465;-31
2022/10/18 14:04:28;;;;;;;3.15;1.33;;;18.60;99.90;;;;;;5072281;28;20107;-33
2022/10/18 14:06:58;;;;;;;3.85;1.05;;;18.80;99.90;;;;;;5070674;28;20024;-35
2022/10/18 14:09:29;;;;;;;3.88;1.95;;;18.60;99.90;;;;;;5072407;28;20480;-33
2022/10/18 14:12:22;;;;;;;1.80;0.88;;;18.40;99.90;;;;;;5071510;28;20044;-30
2022/10/18 14:15:06;;;;;;;2.00;0.57;;;18.30;99.90;;;;;;5062989;28;20520;-35
2022/10/18 14:17:43;;;;;;;5.22;0.60;;;18.20;99.90;;;;;;5060977;28;20038;-31
2022/10/18 14:20:27;;;;;;;3.33;0.57;;;18.20;99.90;;;;;;5070832;28;20424;-34
2022/10/18 14:23:14;;;;;;;1.55;0.50;;;18.50;99.90;;;;;;5068514;28;20059;-59
2022/10/18 14:25:40;;;;;;;5.90;0.40;;;18.60;99.90;;;;;;5071242;28;20059;-33
2022/10/18 14:28:17;;;;;;;1.65;0.60;;;18.90;99.90;;;;;;5072258;28;20126;-33
2022/10/18 14:30:54;;;;;;;8.88;0.70;;;18.80;99.90;;;;;;5070712;28;20036;-33
2022/10/18 14:33:33;;;;;;;5.40;0.60;;;18.70;99.90;;;;;;5072892;28;20028;-33
2022/10/18 14:36:11;;;;;;;4.60;0.73;;;18.40;99.90;;;;;;5072908;28;20560;-33
2022/10/18 14:38:49;;;;;;;2.47;0.90;;;18.40;99.90;;;;;;5068197;28;20163;-34
2022/10/18 14:41:28;;;;;;;1.30;0.47;;;18.50;99.90;;;;;;5068904;28;20497;-30
2022/10/18 14:44:13;;;;;;;6.78;0.90;;;18.50;99.90;;;;;;5072844;28;20051;-31
2022/10/18 14:46:46;;;;;;;1.55;0.93;;;18.60;99.90;;;;;;5071640;28;20028;-30
2022/10/18 14:49:13;;;;;;;4.75;1.15;;;18.70;99.90;;;;;;5071688;28;20473;-31
2022/10/18 14:51:41;;;;;;;5.72;1.33;;;18.60;99.90;;;;;;5071068;28;20519;-31
2022/10/18 14:54:17;;;;;;;5.43;0.85;;;18.50;99.90;;;;;;5072634;28;20524;-31
2022/10/18 14:56:43;;;;;;;7.47;0.60;;;18.40;99.90;;;;;;5071963;28;20366;-31
2022/10/18 14:59:31;;;;;;;3.95;0.75;;;18.50;99.90;;;;;;5071379;28;20049;-33
2022/10/18 15:01:58;;;;;;;;;;;18.30;99.90;;;;;;5072090;28;20024;-36
2022/10/18 15:04:31;;;;;;;4.30;0.75;;;18.10;99.90;;;;;;5069922;28;19908;-33
2022/10/18 15:07:03;;;;;;;1.88;0.68;;;18.00;99.90;;;;;;5071099;28;20555;-32
2022/10/18 15:09:30;;;;;;;4.07;0.68;;;17.90;99.90;;;;;;5071047;28;20115;-32
2022/10/18 15:11:57;;;;;;;4.30;1.00;;;17.90;99.90;;;;;;5071751;28;20033;-32
2022/10/18 15:14:26;;;;;;;6.47;1.13;;;17.80;99.90;;;;;;5071607;28;20031;-31
2022/10/18 15:16:58;;;;;;;6.05;0.90;;;17.70;99.90;;;;;;5072813;28;20424;-30
2022/10/18 15:19:30;;;;;;;5.78;0.65;;;17.60;99.90;;;;;;5072661;28;20070;-32
2022/10/18 15:21:59;;;;;;;2.42;1.10;;;17.50;99.90;;;;;;5074403;28;20021;-33
2022/10/18 15:24:39;;;;;;;8.40;0.80;;;17.50;99.90;;;;;;5074056;28;20473;-31
2022/10/18 15:27:25;;;;;;;5.82;1.17;;;17.50;99.90;;;;;;5075667;28;20055;-34
2022/10/18 15:29:51;;;;;;;3.00;0.63;;;17.50;99.90;;;;;;5074586;28;20034;-32
2022/10/18 15:32:20;;;;;;;8.27;2.55;;;17.60;99.90;;;;;;5075160;28;20896;-34
2022/10/18 15:34:46;;;;;;;4.78;0.70;;;17.60;99.90;;;;;;5066089;28;20420;-35
2022/10/18 15:37:17;;;;;;;4.05;1.20;;;17.50;99.90;;;;;;5073145;28;20104;-36
2022/10/18 15:39:46;;;;;;;5.60;0.82;;;17.30;99.90;;;;;;5064071;28;20056;-32
2022/10/18 15:42:35;;;;;;;3.92;0.75;;;17.20;99.90;;;;;;5075277;28;20063;-32
2022/10/18 15:45:01;;;;;;;6.47;1.00;;;17.10;99.90;;;;;;5072569;28;20028;-34
2022/10/18 15:47:26;;;;;;;10.25;4.78;;;17.00;99.90;;;;;;5075936;28;20734;-31
2022/10/18 15:49:57;;;;;;;3.15;0.82;;;16.80;99.90;;;;;;5066879;28;20037;-33
2022/10/18 15:52:37;;;;;;;4.22;0.70;;;16.70;99.90;;;;;;5072949;28;20500;-51
2022/10/18 15:55:32;;;;;;;0.73;0.50;;;16.60;99.90;;;;;;5073649;28;20029;-38
2022/10/18 15:58:10;;;;;;;6.65;0.98;;;16.40;99.90;;;;;;5068575;28;20047;-31
2022/10/18 16:00:35;;;;;;;8.02;0.77;;;16.30;99.90;;;;;;5071781;28;20025;-33
2022/10/18 16:03:01;;;;;;;5.72;1.05;;;16.20;99.90;;;;;;5075721;28;20024;-32
2022/10/18 16:05:27;;;;;;;6.05;1.40;;;16.10;99.90;;;;;;5073483;28;20037;-32
2022/10/18 16:07:52;;;;;;;13.25;1.95;;;16.00;99.90;;;;;;5072697;28;20052;-34
2022/10/18 16:10:18;;;;;;;5.63;0.75;;;16.00;99.90;;;;;;5074913;28;20150;-32
2022/10/18 16:12:44;;;;;;;3.10;0.65;;;15.90;99.90;;;;;;5075682;28;20029;-31
2022/10/18 16:15:09;;;;;;;5.97;1.05;;;15.90;99.90;;;;;;5074417;28;20512;-31
2022/10/18 16:17:35;;;;;;;1.88;0.80;;;15.80;99.90;;;;;;5070968;28;20032;-55
2022/10/18 16:20:00;;;;;;;4.60;1.00;;;15.70;99.90;;;;;;5072655;28;20048;-38
2022/10/18 16:22:26;;;;;;;6.22;1.10;;;15.70;99.90;;;;;;5073658;28;20020;-40
2022/10/18 16:24:52;;;;;;;3.10;0.85;;;15.70;99.90;;;;;;5073683;28;20024;-39
2022/10/18 16:27:18;;;;;;;5.07;0.90;;;15.60;99.90;;;;;;5073539;28;20023;-40
2022/10/18 16:29:44;;;;;;;2.90;0.93;;;15.60;99.90;;;;;;5073510;28;20021;-40
2022/10/18 16:32:09;;;;;;;4.28;0.95;;;15.60;99.90;;;;;;5074310;28;20044;-38
2022/10/18 16:34:35;;;;;;;4.20;1.05;;;15.50;99.90;;;;;;5073457;28;20025;-38
2022/10/18 16:37:00;;;;;;;2.65;0.68;;;15.40;99.90;;;;;;5075064;28;20027;-43
2022/10/18 16:39:27;;;;;;;4.65;1.20;;;15.30;99.90;;;;;;5074171;28;20044;-41
2022/10/18 16:41:52;;;;;;;8.43;1.27;;;15.30;99.90;;;;;;5074349;28;20047;-40
2022/10/18 16:44:18;;;;;;;7.13;1.10;;;15.20;99.90;;;;;;5072057;28;20021;-39
2022/10/18 16:46:45;;;;;;;3.88;1.25;;;15.20;99.90;;;;;;5074967;28;20068;-40
2022/10/18 16:49:18;;;;;;;4.22;1.48;;;15.10;99.90;;;;;;5071886;28;20039;-52
2022/10/18 16:51:44;;;;;;;5.22;1.05;;;15.00;99.90;;;;;;5068352;28;20025;-51
2022/10/18 16:54:09;;;;;;;8.90;0.95;;;15.00;99.90;;;;;;5073094;28;20446;-39
2022/10/18 16:56:35;;;;;;;7.30;1.10;;;14.90;99.90;;;;;;5073551;28;20013;-39
2022/10/18 16:59:01;;;;;;;8.07;1.35;;;14.80;99.90;;;;;;5073373;28;20523;-39
2022/10/18 17:01:26;;;;;;;3.10;1.02;;;14.70;99.90;;;;;;5070534;28;20025;-39
2022/10/18 17:03:53;;;;;;;5.72;0.93;;;14.60;99.90;;;;;;5071713;28;20491;-39
2022/10/18 17:06:22;;;;;;;7.43;1.35;;;14.60;99.90;;;;;;5073897;28;20031;-40
2022/10/18 17:08:48;;;;;;;3.95;1.10;;;14.50;99.90;;;;;;5071459;28;20385;-32
2022/10/18 17:11:15;;;;;;;4.57;1.30;;;14.50;99.90;;;;;;5072704;28;20043;-43
2022/10/18 17:13:44;;;;;;;6.10;1.30;;;14.40;99.90;;;;;;5072698;28;20040;-33
2022/10/18 17:16:24;;;;;;;3.58;0.70;;;14.30;99.90;;;;;;5073231;28;20074;-30
2022/10/18 17:18:50;;;;;;;7.85;1.48;;;14.20;99.90;;;;;;5059857;28;20016;-32
2022/10/18 17:21:15;;;;;;;7.55;1.08;;;14.20;99.90;;;;;;5073672;28;20534;-36
2022/10/18 17:23:41;;;;;;;13.98;1.65;;;14.10;99.90;;;;;;5072157;28;20025;-34
2022/10/18 17:26:12;;;;;;;6.95;1.90;;;14.10;99.90;;;;;;5072183;28;20583;-33
2022/10/18 17:28:38;;;;;;;4.25;1.58;;;14.00;99.90;;;;;;5072450;28;20499;-37
2022/10/18 17:31:06;;;;;;;8.82;1.13;;;14.10;99.90;;;;;;5073550;28;20032;-32
2022/10/18 17:33:31;;;;;;;7.57;1.33;;;14.00;99.90;;;;;;5073014;28;20087;-39
2022/10/18 17:35:57;;;;;;;2.97;1.10;;;13.90;99.90;;;;;;5071711;28;20075;-38
2022/10/18 17:38:23;;;;;;;1.77;1.02;;;13.90;99.90;;;;;;5071699;28;20485;-41
2022/10/18 17:40:51;;;;;;;7.18;1.23;;;13.80;99.90;;;;;;5071949;28;20024;-38
2022/10/18 17:43:17;;;;;;;5.97;1.55;;;13.80;99.90;;;;;;5071877;28;20465;-34
2022/10/18 17:45:53;;;;;;;6.97;1.50;;;13.80;99.90;;;;;;5072872;28;20032;-39
2022/10/18 17:48:18;;;;;;;4.93;1.30;;;13.80;99.90;;;;;;5072974;28;20036;-42
2022/10/18 17:50:44;;;;;;;4.68;1.25;;;13.80;99.90;;;;;;5072779;28;20495;-33
2022/10/18 17:53:11;;;;;;;9.82;1.25;;;13.70;99.90;;;;;;5072876;28;20401;-37
2022/10/18 17:55:37;;;;;;;2.90;1.40;;;13.60;99.90;;;;;;5072967;28;20032;-44
2022/10/18 17:58:03;;;;;;;4.05;1.27;;;13.70;99.90;;;;;;5070557;28;20045;-32
2022/10/18 18:00:29;;;;;;;4.28;1.70;;;13.60;99.90;;;;;;5072497;28;20027;-31
2022/10/18 18:02:59;;;;;;;7.13;1.55;;;13.60;99.90;;;;;;5070594;28;20062;-36
2022/10/18 18:05:28;;;;;;;7.35;1.35;;;13.60;99.90;;;;;;5072760;28;20499;-36
2022/10/18 18:07:54;;;;;;;10.70;1.50;;;13.50;99.90;;;;;;5072308;28;20020;-37
2022/10/18 18:10:19;;;;;;;6.05;1.88;;;13.40;99.90;;;;;;5072336;28;20219;-33
2022/10/18 18:12:45;;;;;;;4.82;1.50;;;13.40;99.90;;;;;;5072635;28;20028;-35
2022/10/18 18:15:11;;;;;;;8.02;1.65;;;13.40;99.90;;;;;;5070810;28;20036;-32
2022/10/18 18:17:37;;;;;;;10.10;2.78;;;13.30;99.90;;;;;;5073105;28;20021;-33
2022/10/18 18:20:03;;;;;;;10.95;2.22;;;13.30;99.90;;;;;;5072670;28;20013;-34
2022/10/18 18:22:29;;;;;;;4.88;2.33;;;13.20;99.90;;;;;;5071747;28;20024;-31
2022/10/18 18:24:54;;;;;;;5.63;2.30;;;13.20;99.90;;;;;;5071100;28;20111;-32
2022/10/18 18:27:20;;;;;;;9.10;2.67;;;13.20;99.90;;;;;;5073056;28;20052;-33
2022/10/18 18:29:45;;;;;;;4.85;1.80;;;13.10;99.90;;;;;;5066005;28;20450;-33
2022/10/18 18:32:11;;;;;;;18.10;3.92;;;13.10;99.90;;;;;;5070467;28;20032;-33
2022/10/18 18:34:39;;;;;;;12.95;2.60;;;13.00;99.90;;;;;;5071149;28;20058;-34
2022/10/18 18:37:05;;;;;;;;;;;13.00;99.90;;;;;;5073179;28;20073;-32
2022/10/18 18:39:34;;;;;;;9.63;1.95;;;12.90;99.90;;;;;;5067500;28;20340;-39
2022/10/18 18:42:01;;;;;;;6.18;1.88;;;12.90;99.90;;;;;;5070095;28;20031;-41
2022/10/18 18:44:27;;;;;;;6.38;2.10;;;12.80;99.90;;;;;;5072149;28;20077;-40
2022/10/18 18:46:53;;;;;;;1.88;1.67;;;12.80;99.90;;;;;;5069920;28;20016;-38
2022/10/18 18:49:18;;;;;;;21.38;2.20;;;12.80;99.90;;;;;;5069685;28;20392;-42
2022/10/18 18:51:44;;;;;;;11.65;1.92;;;12.70;99.90;;;;;;5055940;28;20142;-39
2022/10/18 18:54:12;;;;;;;6.28;2.25;;;12.70;99.90;;;;;;5072633;28;20021;-39
2022/10/18 18:56:38;;;;;;;;;;;12.70;99.90;;;;;;5073392;28;20020;-40
2022/10/18 18:59:04;;;;;;;9.45;1.92;;;12.60;99.90;;;;;;5072617;28;20420;-39
2022/10/18 19:01:34;;;;;;;4.95;1.48;;;12.50;99.90;;;;;;5073060;28;20380;-41
2022/10/18 19:03:59;;;;;;;4.28;1.83;;;12.50;99.90;;;;;;5072613;28;20027;-34
2022/10/18 19:06:26;;;;;;;7.75;1.73;;;12.50;99.90;;;;;;5072042;28;20443;-39
2022/10/18 19:08:58;;;;;;;4.97;2.95;;;12.50;99.90;;;;;;5071272;28;20431;-32
2022/10/18 19:11:24;;;;;;;13.90;2.38;;;12.40;99.90;;;;;;5070665;28;20032;-34
2022/10/18 19:13:50;;;;;;;6.10;2.00;;;12.40;99.90;;;;;;5071610;28;20035;-50
2022/10/18 19:16:33;;;;;;;9.77;2.30;;;12.40;99.90;;;;;;5071649;28;20028;-45
2022/10/18 19:19:00;;;;;;;6.75;1.92;;;12.30;99.90;;;;;;5072464;28;20029;-49
2022/10/18 19:21:34;;;;;;;8.70;1.85;;;12.30;99.90;;;;;;5068367;28;20388;-40
2022/10/18 19:24:00;;;;;;;4.32;1.92;;;12.30;99.90;;;;;;5069408;28;20028;-46
2022/10/18 19:26:27;;;;;;;6.05;1.95;;;12.20;99.90;;;;;;5072695;28;20481;-42
2022/10/18 19:28:53;;;;;;;10.73;2.37;;;12.20;99.90;;;;;;5071142;28;20481;-32
2022/10/18 19:31:19;;;;;;;8.20;2.50;;;12.20;99.90;;;;;;5070536;28;20036;-32
2022/10/18 19:33:44;;;;;;;2.45;1.48;;;12.20;99.90;;;;;;5072292;28;20485;-33
2022/10/18 19:36:10;;;;;;;8.93;1.80;;;12.10;99.90;;;;;;5071699;28;20392;-40
2022/10/18 19:38:35;;;;;;;10.07;1.80;;;12.10;99.90;;;;;;5070311;28;20101;-40
2022/10/18 19:41:01;;;;;;;4.50;1.80;;;12.00;99.90;;;;;;5072029;28;20056;-41
2022/10/18 19:43:27;;;;;;;10.60;2.45;;;12.00;99.90;;;;;;5068441;28;20534;-40
2022/10/18 19:45:52;;;;;;;3.67;2.13;;;12.00;99.90;;;;;;5068210;28;20464;-38
2022/10/18 19:48:18;;;;;;;4.88;2.28;;;12.00;99.90;;;;;;5068075;28;20062;-42
2022/10/18 19:50:44;;;;;;;4.32;2.13;;;12.00;99.90;;;;;;5069880;28;20377;-41
2022/10/18 19:53:10;;;;;;;5.65;2.08;;;11.90;99.90;;;;;;5071522;28;20033;-43
2022/10/18 19:55:35;;;;;;;4.25;2.00;;;11.90;99.90;;;;;;5068988;28;20393;-42
2022/10/18 19:58:01;;;;;;;9.32;1.77;;;11.90;99.90;;;;;;5070785;28;20048;-43
2022/10/18 20:00:26;;;;;;;7.55;2.83;;;11.90;99.90;;;;;;5071438;28;20025;-43
2022/10/18 20:02:52;;;;;;;13.43;1.80;;;11.80;99.90;;;;;;5070298;28;20043;-43
2022/10/18 20:05:18;;;;;;;10.98;3.50;;;11.80;99.90;;;;;;5071448;28;20079;-42
2022/10/18 20:07:46;;;;;;;9.02;2.45;;;11.80;99.90;;;;;;5070418;28;20435;-42
2022/10/18 20:10:11;;;;;;;7.57;1.75;;;11.80;99.90;;;;;;5074361;28;20116;-46
2022/10/18 20:12:37;;;;;;;9.02;2.30;;;11.80;99.90;;;;;;5072688;28;20459;-39
2022/10/18 20:15:04;;;;;;;9.68;2.42;;;11.70;99.90;;;;;;5072592;28;20044;-40
2022/10/18 20:17:31;;;;;;;5.15;1.95;;;11.70;99.90;;;;;;5071777;28;20044;-66